Time;durP1;ratioP1;P1;durP2;ratioP2;P2;SDS_P1;SDS_P2;PMS_P1;PMS_P2;Temp;Humidity;BMP_temperature;BMP_pressure;BME280_temperature;BME280_humidity;BME280_pressure;Samples;Min_cycle;Max_cycle;Signal;HPM_P1;HPM_P2
2021/04/12 00:00:36;;;;;;;57.08;28.80;;;;;;;2.42;54.44;101090.08;1735513;82;21117;-75
2021/04/12 00:03:14;;;;;;;63.95;28.23;;;;;;;2.40;53.83;101085.29;1735796;82;21181;-75
2021/04/12 00:06:03;;;;;;;59.83;30.25;;;;;;;2.40;53.83;101085.29;1729541;82;21163;-78
2021/04/12 00:08:46;;;;;;;60.88;28.47;;;;;;;2.46;54.19;101089.23;1759933;80;21160;-77
2021/04/12 00:11:38;;;;;;;67.12;30.12;;;;;;;2.47;54.39;101087.10;1760089;81;21442;-78
2021/04/12 00:14:26;;;;;;;62.65;28.83;;;;;;;2.43;54.46;101086.61;1759910;81;21181;-76
2021/04/12 00:17:27;;;;;;;60.70;28.85;;;;;;;2.43;54.48;101090.08;1769418;80;21152;-75
2021/04/12 00:20:32;;;;;;;55.50;27.97;;;;;;;2.49;54.13;101090.59;1845771;76;22771;-77
2021/04/12 00:23:12;;;;;;;65.03;31.37;;;;;;;2.46;54.50;101085.34;1815916;79;21697;-79
2021/04/12 00:25:56;;;;;;;62.70;30.00;;;;;;;2.45;54.76;101079.70;1816029;78;26217;-75
2021/04/12 00:28:37;;;;;;;66.47;30.65;;;;;;;2.36;55.43;101074.41;1790312;79;21578;-75
2021/04/12 00:31:11;;;;;;;;;;;;;;;2.36;55.43;101074.41;1818446;79;21170;-75
2021/04/12 00:34:19;;;;;;;69.60;30.12;;;;;;;2.28;55.11;101068.69;1815666;79;20597;-77
2021/04/12 00:37:09;;;;;;;65.70;30.12;;;;;;;2.24;55.56;101073.83;1815597;78;21155;-76
2021/04/12 00:39:45;;;;;;;63.13;28.73;;;;;;;2.17;56.15;101072.88;1815796;78;21234;-74
2021/04/12 00:42:56;;;;;;;64.03;30.48;;;;;;;2.10;56.14;101072.36;1815851;78;21174;-77
2021/04/12 00:45:37;;;;;;;60.98;29.12;;;;;;;2.05;56.65;101068.84;1815915;78;21191;-78
2021/04/12 00:49:01;;;;;;;60.58;29.77;;;;;;;1.95;57.00;101072.16;1815836;79;21154;-74
2021/04/12 00:51:59;;;;;;;66.00;28.52;;;;;;;1.87;57.66;101071.63;1815819;78;22297;-76
2021/04/12 00:54:54;;;;;;;60.38;29.45;;;;;;;1.82;57.34;101070.70;1781106;79;21256;-75
2021/04/12 00:57:51;;;;;;;63.58;28.32;;;;;;;1.80;57.66;101075.00;1815686;78;21155;-75
2021/04/12 01:00:33;;;;;;;62.00;28.87;;;;;;;1.76;57.74;101070.61;1815790;79;21154;-75
2021/04/12 01:03:33;;;;;;;59.45;29.42;;;;;;;1.72;57.76;101066.21;1809290;79;21143;-75
2021/04/12 01:06:53;;;;;;;60.65;27.80;;;;;;;1.66;57.78;101067.45;1783901;79;21174;-74
2021/04/12 01:10:08;;;;;;;62.65;29.85;;;;;;;1.60;58.23;101064.31;1751262;81;22439;-74
2021/04/12 01:13:10;;;;;;;57.43;28.40;;;;;;;1.53;58.65;101063.78;1757225;79;21162;-74
2021/04/12 01:16:08;;;;;;;66.85;30.60;;;;;;;1.48;58.52;101058.09;1775549;78;26265;-75
2021/04/12 01:19:20;;;;;;;57.55;29.23;;;;;;;1.45;58.55;101053.73;1776110;78;21160;-75
2021/04/12 01:22:35;;;;;;;59.15;28.12;;;;;;;1.42;58.53;101053.66;1726338;81;21174;-76
2021/04/12 01:25:23;;;;;;;65.45;31.17;;;;;;;1.38;58.45;101050.16;1750570;81;21342;-77
2021/04/12 01:28:27;;;;;;;65.25;28.85;;;;;;;1.39;58.85;101043.24;1765918;81;21180;-74
2021/04/12 01:31:18;;;;;;;60.78;28.60;;;;;;;1.39;59.08;101042.81;1715473;81;21217;-76
2021/04/12 01:34:30;;;;;;;63.45;28.40;;;;;;;1.39;59.06;101040.22;1767857;81;21182;-76
2021/04/12 01:37:21;;;;;;;52.25;26.95;;;;;;;1.38;59.26;101038.48;1740889;81;21697;-76
2021/04/12 01:40:15;;;;;;;65.35;29.12;;;;;;;1.35;59.84;101030.63;1754388;81;21197;-74
2021/04/12 01:43:05;;;;;;;75.35;34.75;;;;;;;1.37;60.43;101028.07;1726826;81;21171;-74
2021/04/12 01:45:48;;;;;;;86.70;35.40;;;;;;;1.35;59.71;101022.84;1754672;81;21138;-76
2021/04/12 01:48:57;;;;;;;76.42;32.85;;;;;;;1.35;59.58;101017.66;1754281;81;21214;-75
2021/04/12 01:51:39;;;;;;;69.97;30.20;;;;;;;1.31;59.73;101018.88;1754347;81;21170;-76
2021/04/12 01:54:27;;;;;;;72.25;32.15;;;;;;;1.28;60.49;101020.14;1750133;82;21380;-76
2021/04/12 01:57:37;;;;;;;78.67;34.45;;;;;;;1.27;60.62;101014.09;1750024;82;21492;-77
2021/04/12 02:00:43;;;;;;;64.60;29.18;;;;;;;1.27;60.77;101012.80;1750114;82;21334;-77
2021/04/12 02:03:55;;;;;;;73.02;33.02;;;;;;;1.27;60.70;101016.69;1750147;82;21167;-80
2021/04/12 02:07:15;;;;;;;76.70;33.83;;;;;;;1.26;60.76;101011.03;1750398;82;21107;-79
2021/04/12 02:10:33;;;;;;;74.32;32.48;;;;;;;1.25;59.76;101008.00;1753854;80;21445;-77
2021/04/12 02:13:43;;;;;;;76.75;34.78;;;;;;;1.23;59.99;101010.56;1755104;80;21107;-78
2021/04/12 02:16:32;;;;;;;67.25;31.82;;;;;;;1.22;59.83;101004.05;1754033;82;21207;-77
2021/04/12 02:19:23;;;;;;;66.28;31.40;;;;;;;1.18;60.31;100994.49;1761143;79;21205;-76
2021/04/12 02:22:32;;;;;;;69.58;29.82;;;;;;;1.15;60.63;101003.10;1785700;80;21694;-77
2021/04/12 02:25:09;;;;;;;68.28;31.85;;;;;;;1.15;61.44;101002.20;1786372;80;21245;-74
2021/04/12 02:28:27;;;;;;;63.52;30.52;;;;;;;1.13;60.96;100992.23;1774866;80;21190;-77
2021/04/12 02:31:22;;;;;;;69.65;30.55;;;;;;;1.12;60.83;100992.66;1773083;80;21209;-75
2021/04/12 02:34:27;;;;;;;69.35;32.20;;;;;;;1.09;61.23;100996.95;1773282;80;21162;-74
2021/04/12 02:37:41;;;;;;;71.82;31.20;;;;;;;1.08;60.97;100990.86;1773148;80;21740;-75
2021/04/12 02:40:38;;;;;;;65.30;30.37;;;;;;;1.04;60.83;100986.50;1777036;79;21372;-76
2021/04/12 02:43:33;;;;;;;69.05;32.88;;;;;;;1.02;61.43;100991.65;1793457;79;21216;-77
2021/04/12 02:46:24;;;;;;;75.05;34.25;;;;;;;0.99;61.54;100989.02;1786660;80;21129;-75
2021/04/12 02:49:03;;;;;;;71.60;33.10;;;;;;;0.96;62.12;100990.25;1786594;80;21183;-74
2021/04/12 02:51:48;;;;;;;66.05;29.55;;;;;;;0.92;62.13;100994.96;1786811;80;21626;-74
2021/04/12 02:54:40;;;;;;;62.27;31.23;;;;;;;0.88;62.06;100986.67;1767010;80;22161;-77
2021/04/12 02:58:05;;;;;;;68.12;32.70;;;;;;;0.86;61.79;100984.48;1786880;80;21177;-75
2021/04/12 03:00:38;;;;;;;62.35;28.40;;;;;;;0.84;61.94;100983.58;1774523;80;21215;-75
2021/04/12 03:03:35;;;;;;;62.13;30.40;;;;;;;0.83;61.72;100980.12;1755806;81;21626;-76
2021/04/12 03:06:27;;;;;;;65.83;31.63;;;;;;;0.88;62.15;100984.08;1840142;77;22738;-79
2021/04/12 03:09:33;;;;;;;68.17;32.45;;;;;;;0.82;61.98;100987.86;1815586;79;21681;-78
2021/04/12 03:12:34;;;;;;;70.52;33.23;;;;;;;0.78;61.90;100979.58;1815283;79;21494;-80
2021/04/12 03:15:06;;;;;;;;;;;;;;;0.78;61.88;100986.06;1818107;79;22236;-80
2021/04/12 03:17:54;;;;;;;72.32;33.98;;;;;;;0.77;62.05;100981.30;1815848;79;20256;-79
2021/04/12 03:20:45;;;;;;;133.85;61.18;;;;;;;0.75;62.06;100983.42;1748967;81;21665;-79
2021/04/12 03:23:42;;;;;;;118.10;55.38;;;;;;;0.73;62.01;100974.75;1748805;82;21219;-80
2021/04/12 03:27:04;;;;;;;106.97;52.05;;;;;;;0.74;61.78;100976.51;1727431;82;21218;-80
2021/04/12 03:29:46;;;;;;;98.27;48.73;;;;;;;0.76;61.66;100972.19;1748724;82;21485;-76
2021/04/12 03:33:14;;;;;;;84.00;42.40;;;;;;;0.80;61.73;100977.88;1718572;82;21163;-77
2021/04/12 03:36:20;;;;;;;77.10;38.40;;;;;;;0.84;62.29;100970.17;1748346;80;21156;-76
2021/04/12 03:39:08;;;;;;;71.70;36.33;;;;;;;0.98;62.94;100970.39;1778158;80;21135;-75
2021/04/12 03:42:10;;;;;;;74.17;38.20;;;;;;;1.09;62.90;100968.41;1774518;80;21334;-77
2021/04/12 03:44:49;;;;;;;72.05;35.05;;;;;;;1.18;62.27;100971.14;1774738;80;21179;-75
2021/04/12 03:47:28;;;;;;;60.43;30.65;;;;;;;1.26;61.83;100972.11;1772088;80;21219;-74
2021/04/12 03:50:24;;;;;;;57.17;28.60;;;;;;;1.34;62.97;100966.61;1775108;80;21682;-76
2021/04/12 03:53:19;;;;;;;67.27;32.60;;;;;;;1.43;63.31;100961.55;1778754;80;21814;-76
2021/04/12 03:56:13;;;;;;;67.87;35.50;;;;;;;1.56;64.66;100958.67;1779175;80;21349;-75
2021/04/12 03:58:59;;;;;;;67.03;31.60;;;;;;;1.71;63.23;100958.01;1763703;80;21621;-75
2021/04/12 04:01:58;;;;;;;69.92;33.48;;;;;;;1.85;62.61;100953.84;1767229;80;21468;-77
2021/04/12 04:04:49;;;;;;;79.40;36.23;;;;;;;2.01;62.43;100954.03;1743386;81;21252;-75
2021/04/12 04:07:56;;;;;;;81.20;37.88;;;;;;;2.20;62.95;100949.46;1755821;81;21564;-75
2021/04/12 04:11:12;;;;;;;80.80;37.42;;;;;;;2.37;62.58;100948.75;1741401;81;21314;-76
2021/04/12 04:14:07;;;;;;;80.67;37.28;;;;;;;2.76;63.20;100946.06;1735400;81;21586;-77
2021/04/12 04:17:11;;;;;;;83.30;40.25;;;;;;;2.76;63.20;100946.06;1731135;81;21195;-76
2021/04/12 04:20:20;;;;;;;75.62;36.33;;;;;;;2.98;61.50;100944.51;1726040;83;21186;-76
2021/04/12 04:26:11;;;;;;;83.03;39.17;;;;;;;3.52;63.36;100943.08;1802159;79;22664;-76
2021/04/12 04:29:23;;;;;;;85.10;38.98;;;;;;;3.69;62.20;100935.36;1760674;80;21163;-77
2021/04/12 04:32:31;;;;;;;88.17;40.25;;;;;;;3.99;60.31;100935.45;1760497;81;21361;-76
2021/04/12 04:35:35;;;;;;;85.80;38.60;;;;;;;4.28;60.41;100934.66;1760277;81;21071;-75
2021/04/12 04:38:47;;;;;;;84.87;39.95;;;;;;;4.60;60.05;100923.36;1726779;81;21217;-76
2021/04/12 04:41:39;;;;;;;68.45;32.90;;;;;;;4.90;57.74;100932.05;1756389;81;21198;-77
2021/04/12 04:45:01;;;;;;;75.45;38.55;;;;;;;5.23;57.94;100933.31;1780459;80;21178;-78
2021/04/12 04:48:10;;;;;;;85.65;37.95;;;;;;;5.55;57.44;100929.75;1756343;81;21831;-80
2021/04/12 04:50:55;;;;;;;78.00;37.58;;;;;;;5.93;54.99;100930.00;1756118;81;21394;-80
2021/04/12 04:53:58;;;;;;;74.58;38.00;;;;;;;6.30;54.25;100924.58;1764827;80;21178;-80
2021/04/12 04:56:52;;;;;;;79.07;37.67;;;;;;;6.65;52.24;100918.24;1778123;80;21425;-79
2021/04/12 04:59:58;;;;;;;76.17;39.15;;;;;;;7.06;51.98;100915.66;1756427;81;21147;-81
2021/04/12 05:03:14;;;;;;;67.90;36.15;;;;;;;7.49;49.90;100910.82;1710402;83;21827;-81
2021/04/12 05:06:09;;;;;;;67.08;35.58;;;;;;;7.93;50.61;100912.00;1715525;83;21198;-80
2021/04/12 05:09:03;;;;;;;70.37;35.13;;;;;;;8.37;48.53;100908.31;1715587;83;21199;-81
2021/04/12 05:12:03;;;;;;;72.27;36.53;;;;;;;8.76;45.67;100909.45;1715450;83;21258;-80
2021/04/12 05:14:54;;;;;;;73.35;36.20;;;;;;;9.07;44.22;100905.44;1732947;82;21207;-80
2021/04/12 05:17:47;;;;;;;67.92;34.73;;;;;;;9.36;43.18;100900.50;1735505;82;21330;-81
2021/04/12 05:21:00;;;;;;;64.82;34.73;;;;;;;9.62;41.69;100896.47;1668692;84;21190;-82
2021/04/12 05:24:05;;;;;;;64.12;34.23;;;;;;;9.78;40.98;100889.98;1682397;84;21246;-79
2021/04/12 05:27:04;;;;;;;72.10;35.23;;;;;;;9.96;40.68;100893.09;1656568;84;21219;-79
2021/04/12 05:30:08;;;;;;;69.42;33.98;;;;;;;10.18;39.88;100891.71;1686261;84;21789;-79
2021/04/12 05:32:53;;;;;;;62.62;33.40;;;;;;;10.42;39.64;100886.80;1677073;84;22213;-79
2021/04/12 05:35:49;;;;;;;61.95;32.60;;;;;;;10.66;39.67;100890.14;1685677;84;21642;-79
2021/04/12 05:38:51;;;;;;;60.48;33.50;;;;;;;10.88;38.88;100883.89;1682521;84;21298;-78
2021/04/12 05:41:56;;;;;;;69.82;33.42;;;;;;;11.01;38.48;100876.50;1644432;84;21197;-78
2021/04/12 05:44:41;;;;;;;61.85;32.53;;;;;;;11.16;38.76;100874.34;1691670;84;21238;-80
2021/04/12 05:48:05;;;;;;;55.88;31.97;;;;;;;11.23;38.72;100862.75;1689634;84;21378;-78
2021/04/12 05:50:44;;;;;;;57.35;31.00;;;;;;;11.31;38.27;100869.97;1682581;84;21202;-81
2021/04/12 05:53:42;;;;;;;58.60;31.10;;;;;;;11.35;38.22;100878.22;1680909;85;21615;-79
2021/04/12 05:56:52;;;;;;;61.28;30.48;;;;;;;11.45;38.27;100877.03;1685585;84;21218;-79
2021/04/12 05:59:34;;;;;;;51.42;30.05;;;;;;;11.58;38.11;100871.42;1652256;86;21143;-79
2021/04/12 06:02:10;;;;;;;54.70;32.10;;;;;;;11.72;37.79;100870.55;1647562;86;21426;-79
2021/04/12 06:05:21;;;;;;;62.08;31.02;;;;;;;11.92;37.53;100867.34;1649249;86;21194;-80
2021/04/12 06:08:17;;;;;;;55.58;30.20;;;;;;;12.24;37.71;100863.70;1631678;85;21173;-80
2021/04/12 06:11:28;;;;;;;48.35;27.30;;;;;;;12.80;36.49;100858.28;1630708;86;21657;-80
2021/04/12 06:14:36;;;;;;;53.40;28.55;;;;;;;13.46;35.93;100848.48;1665665;84;21175;-80
2021/04/12 06:17:34;;;;;;;56.70;28.27;;;;;;;14.34;33.56;100856.48;1661153;84;21397;-80
2021/04/12 06:20:41;;;;;;;49.33;27.77;;;;;;;15.07;31.86;100849.02;1663614;85;21232;-81
2021/04/12 06:23:37;;;;;;;44.38;27.15;;;;;;;15.63;30.37;100844.71;1636757;85;21200;-80
2021/04/12 06:26:44;;;;;;;45.85;27.60;;;;;;;16.19;30.04;100838.50;1653576;85;21181;-80
2021/04/12 06:29:36;;;;;;;50.33;27.58;;;;;;;16.76;29.06;100841.82;1663383;85;21194;-81
2021/04/12 06:32:40;;;;;;;41.75;26.35;;;;;;;17.29;28.24;100828.00;1660918;85;21230;-80
2021/04/12 06:36:05;;;;;;;41.40;25.30;;;;;;;17.78;26.87;100825.32;1659014;85;21183;-81
2021/04/12 06:38:56;;;;;;;37.78;21.93;;;;;;;18.00;26.69;100828.12;1649537;85;21209;-80
2021/04/12 06:42:10;;;;;;;38.60;22.42;;;;;;;18.16;25.53;100822.30;1657052;85;21226;-79
2021/04/12 06:45:13;;;;;;;35.38;22.65;;;;;;;18.37;25.52;100820.67;1628153;86;21171;-81
2021/04/12 06:47:56;;;;;;;40.20;22.35;;;;;;;18.54;25.75;100811.66;1654577;85;21358;-80
2021/04/12 06:51:01;;;;;;;36.38;20.10;;;;;;;18.67;25.83;100811.32;1646968;85;21630;-80
2021/04/12 06:54:03;;;;;;;34.40;19.32;;;;;;;18.93;24.22;100806.24;1657049;85;21224;-81
2021/04/12 06:57:05;;;;;;;35.80;20.68;;;;;;;19.07;23.72;100803.13;1655644;85;21204;-80
2021/04/12 07:00:07;;;;;;;37.78;21.20;;;;;;;19.28;23.93;100800.08;1658141;85;21216;-81
2021/04/12 07:03:23;;;;;;;34.03;18.30;;;;;;;19.61;24.31;100788.20;1655292;85;21413;-79
2021/04/12 07:06:18;;;;;;;32.33;18.52;;;;;;;20.03;23.26;100787.71;1652609;86;21665;-80
2021/04/12 07:09:37;;;;;;;32.67;18.02;;;;;;;20.47;23.72;100782.52;1661935;85;21209;-81
2021/04/12 07:12:19;;;;;;;32.28;15.98;;;;;;;20.95;22.93;100778.30;1656293;85;21209;-79
2021/04/12 07:15:20;;;;;;;25.43;14.03;;;;;;;21.58;21.52;100767.64;1658792;85;21229;-80
2021/04/12 07:18:39;;;;;;;33.45;15.93;;;;;;;21.91;20.34;100765.63;1657150;85;21354;-80
2021/04/12 07:21:49;;;;;;;26.97;14.70;;;;;;;21.92;20.04;100763.30;1654045;85;21202;-80
2021/04/12 07:25:13;;;;;;;22.77;13.85;;;;;;;21.89;19.96;100762.20;1656657;85;21657;-80
2021/04/12 07:28:20;;;;;;;21.82;11.68;;;;;;;21.87;20.24;100768.65;1659111;85;21205;-79
2021/04/12 07:31:26;;;;;;;32.55;13.75;;;;;;;22.06;19.57;100758.73;1654369;85;21219;-81
2021/04/12 07:34:32;;;;;;;23.77;11.03;;;;;;;21.97;19.44;100757.12;1656488;85;21635;-79
2021/04/12 07:37:40;;;;;;;19.92;12.25;;;;;;;22.02;19.48;100763.49;1663401;85;21291;-81
2021/04/12 07:40:30;;;;;;;18.67;11.88;;;;;;;22.00;19.29;100762.25;1672606;85;21224;-79
2021/04/12 07:43:27;;;;;;;16.25;9.95;;;;;;;21.73;19.50;100753.09;1670167;85;21249;-81
2021/04/12 07:46:18;;;;;;;22.85;11.22;;;;;;;21.54;19.27;100754.09;1657263;85;21232;-80
2021/04/12 07:49:30;;;;;;;21.20;12.35;;;;;;;21.00;20.46;100748.53;1643543;86;26643;-81
2021/04/12 07:52:45;;;;;;;19.25;12.65;;;;;;;20.62;20.91;100744.05;1648500;86;21163;-80
2021/04/12 07:55:47;;;;;;;25.72;13.22;;;;;;;20.73;21.69;100747.33;1648838;86;21195;-80
2021/04/12 07:58:42;;;;;;;21.80;12.63;;;;;;;20.85;22.31;100733.57;1653724;85;21169;-80
2021/04/12 08:01:52;;;;;;;24.07;14.15;;;;;;;20.81;21.98;100741.44;1647690;86;21280;-81
2021/04/12 08:05:11;;;;;;;23.60;13.58;;;;;;;20.42;22.10;100741.86;1650622;86;22382;-80
2021/04/12 08:08:35;;;;;;;38.42;21.87;;;;;;;19.73;22.55;100750.02;1649554;86;21183;-80
2021/04/12 08:11:49;;;;;;;27.35;15.40;;;;;;;18.83;23.68;100753.92;1663277;85;21183;-80
2021/04/12 08:15:44;;;;;;;25.23;14.60;;;;;;;17.92;25.08;100757.08;1645544;85;21295;-80
2021/04/12 08:18:35;;;;;;;25.55;13.90;;;;;;;17.19;26.39;100754.92;1662023;85;21224;-81
2021/04/12 08:21:35;;;;;;;36.73;14.68;;;;;;;16.79;26.28;100758.38;1662440;85;21841;-79
2021/04/12 08:24:57;;;;;;;24.55;13.38;;;;;;;16.43;26.96;100761.14;1667191;85;21199;-79
2021/04/12 08:28:17;;;;;;;20.02;11.50;;;;;;;16.19;26.90;100761.91;1677651;85;21168;-80
2021/04/12 08:31:23;;;;;;;24.23;11.63;;;;;;;16.07;26.66;100756.27;1681830;85;21164;-80
2021/04/12 08:34:26;;;;;;;20.60;10.65;;;;;;;15.94;26.72;100762.67;1679034;85;22181;-80
2021/04/12 08:37:39;;;;;;;22.70;12.00;;;;;;;15.83;27.00;100757.03;1680495;85;22311;-80
2021/04/12 08:40:18;;;;;;;17.85;10.05;;;;;;;15.83;26.63;100763.66;1667412;85;21262;-79
2021/04/12 08:43:09;;;;;;;27.35;11.43;;;;;;;15.82;26.34;100757.94;1680199;85;21243;-80
2021/04/12 08:46:03;;;;;;;28.07;13.00;;;;;;;15.72;27.32;100754.88;1671819;85;21657;-80
2021/04/12 08:48:52;;;;;;;23.52;12.18;;;;;;;15.64;28.02;100749.03;1677941;85;22105;-80
2021/04/12 08:51:48;;;;;;;21.70;10.50;;;;;;;15.48;28.16;100737.44;1679792;85;21206;-79
2021/04/12 08:54:35;;;;;;;17.73;9.45;;;;;;;15.16;30.16;100740.27;1652528;85;21224;-80
2021/04/12 08:57:29;;;;;;;18.52;8.93;;;;;;;14.86;31.96;100741.63;1672108;85;21642;-79
2021/04/12 09:00:18;;;;;;;17.30;9.70;;;;;;;14.58;32.66;100739.79;1668778;85;21313;-81
2021/04/12 09:03:22;;;;;;;17.45;9.40;;;;;;;14.33;34.75;100731.54;1661947;86;21231;-81
2021/04/12 09:06:05;;;;;;;17.17;10.70;;;;;;;14.19;35.57;100717.56;1666482;86;21385;-81
2021/04/12 09:09:00;;;;;;;18.23;9.73;;;;;;;14.20;36.19;100708.70;1666319;85;21236;-80
2021/04/12 09:11:58;;;;;;;16.82;9.83;;;;;;;14.28;36.57;100700.41;1664354;85;21190;-80
2021/04/12 09:14:38;;;;;;;18.85;10.10;;;;;;;14.50;35.60;100698.17;1673060;85;21215;-80
2021/04/12 09:18:07;;;;;;;16.80;10.03;;;;;;;14.62;34.45;100697.65;1645757;85;21168;-79
2021/04/12 09:21:06;;;;;;;12.10;7.33;;;;;;;14.64;32.88;100694.47;1670792;85;21226;-80
2021/04/12 09:24:04;;;;;;;21.30;7.58;;;;;;;14.62;32.07;100687.05;1679487;85;21663;-80
2021/04/12 09:27:10;;;;;;;15.08;8.15;;;;;;;14.53;32.34;100684.78;1647386;85;21184;-83
2021/04/12 09:30:19;;;;;;;17.32;7.85;;;;;;;14.38;32.74;100668.63;1728541;81;21185;-81
2021/04/12 09:33:30;;;;;;;15.88;8.10;;;;;;;14.27;32.84;100665.13;1730004;81;21237;-80
2021/04/12 09:36:37;;;;;;;24.25;8.83;;;;;;;14.27;33.10;100657.17;1736823;82;21341;-81
2021/04/12 09:40:02;;;;;;;13.55;8.10;;;;;;;14.28;33.99;100654.05;1749316;82;21206;-79
2021/04/12 09:43:00;;;;;;;14.38;8.63;;;;;;;14.25;33.22;100655.52;1729279;81;21714;-76
2021/04/12 09:46:05;;;;;;;21.07;11.93;;;;;;;14.16;34.48;100649.30;1740205;82;21665;-75
2021/04/12 09:48:50;;;;;;;23.00;10.75;;;;;;;14.14;34.50;100649.36;1711639;82;21190;-76
2021/04/12 09:52:01;;;;;;;26.45;12.53;;;;;;;14.16;34.66;100640.89;1733566;82;22286;-74
2021/04/12 09:54:52;;;;;;;20.40;11.48;;;;;;;14.23;34.29;100641.48;1736656;82;21602;-76
2021/04/12 09:58:00;;;;;;;24.18;11.18;;;;;;;14.35;35.03;100640.93;1730835;81;21198;-76
2021/04/12 10:00:39;;;;;;;25.77;12.07;;;;;;;14.51;35.11;100634.95;1733893;82;21286;-75
2021/04/12 10:03:56;;;;;;;26.27;12.75;;;;;;;14.59;34.56;100633.72;1721086;83;21678;-76
2021/04/12 10:06:56;;;;;;;22.02;12.55;;;;;;;14.59;34.87;100628.41;1717021;83;21886;-75
2021/04/12 10:10:05;;;;;;;24.77;11.40;;;;;;;14.45;37.33;100612.25;1707842;81;21215;-75
2021/04/12 10:13:14;;;;;;;21.10;11.08;;;;;;;14.51;39.19;100627.86;1718596;83;21218;-75
2021/04/12 10:16:20;;;;;;;19.40;8.43;;;;;;;14.48;40.93;100628.86;1718903;83;21734;-76
2021/04/12 10:19:19;;;;;;;14.20;7.30;;;;;;;14.34;40.81;100620.67;1714119;81;21813;-75
2021/04/12 10:22:05;;;;;;;14.68;6.17;;;;;;;14.13;42.61;100621.64;1827350;77;22738;-76
2021/04/12 10:24:56;;;;;;;25.45;7.67;;;;;;;13.95;43.51;100622.83;1806300;78;21190;-76
2021/04/12 10:27:42;;;;;;;18.87;8.38;;;;;;;13.84;44.96;100629.03;1801889;78;21823;-76
2021/04/12 10:30:19;;;;;;;15.10;7.95;;;;;;;13.61;45.23;100635.30;1729971;82;21209;-76
2021/04/12 10:33:06;;;;;;;16.57;7.50;;;;;;;13.28;46.37;100648.13;1792935;78;21064;-76
2021/04/12 10:35:50;;;;;;;15.50;8.78;;;;;;;13.00;47.07;100647.39;1813243;78;21229;-77
2021/04/12 10:38:33;;;;;;;15.13;7.75;;;;;;;12.76;48.67;100656.25;1787881;78;21107;-77
2021/04/12 10:41:27;;;;;;;14.65;8.48;;;;;;;12.52;50.00;100659.36;1803987;78;21617;-77
2021/04/12 10:44:20;;;;;;;23.07;10.70;;;;;;;12.33;50.84;100669.27;1785549;78;21265;-76
2021/04/12 10:47:11;;;;;;;26.93;13.00;;;;;;;12.10;52.19;100678.44;1795335;78;21183;-76
2021/04/12 10:49:54;;;;;;;27.30;13.20;;;;;;;11.89;54.20;100688.84;1753590;80;21158;-76
2021/04/12 10:52:45;;;;;;;18.25;10.93;;;;;;;11.72;55.38;100683.21;1788655;79;21190;-78
2021/04/12 10:55:23;;;;;;;24.80;12.43;;;;;;;11.55;53.99;100679.81;1789433;79;21421;-78
2021/04/12 10:58:29;;;;;;;22.62;12.23;;;;;;;11.30;55.60;100673.99;1767012;80;21215;-78
2021/04/12 11:01:07;;;;;;;23.07;12.35;;;;;;;11.12;56.64;100679.38;1803642;78;21151;-77
2021/04/12 11:03:53;;;;;;;24.43;13.95;;;;;;;11.02;58.44;100675.30;1765969;80;21154;-78
2021/04/12 11:06:55;;;;;;;26.10;15.75;;;;;;;10.96;59.53;100672.84;1749972;80;21178;-78
2021/04/12 11:09:47;;;;;;;32.73;18.75;;;;;;;10.91;61.02;100670.34;1754617;81;21669;-78
2021/04/12 11:12:38;;;;;;;38.45;21.12;;;;;;;10.87;62.36;100673.11;1754170;81;21225;-78
2021/04/12 11:15:31;;;;;;;35.33;19.80;;;;;;;10.89;63.82;100664.71;1778052;80;27143;-78
2021/04/12 11:18:30;;;;;;;34.50;19.10;;;;;;;10.87;62.59;100660.80;1780872;80;21182;-78
2021/04/12 11:21:20;;;;;;;36.95;21.02;;;;;;;10.91;62.23;100658.95;1748489;81;21190;-77
2021/04/12 11:24:10;;;;;;;37.50;22.67;;;;;;;10.91;62.88;100656.31;1739100;82;21614;-78
2021/04/12 11:27:23;;;;;;;34.35;21.00;;;;;;;10.92;62.30;100659.34;1765713;80;21601;-78
2021/04/12 11:30:34;;;;;;;41.28;22.75;;;;;;;10.91;62.64;100656.31;1785254;80;21198;-78
2021/04/12 11:33:36;;;;;;;42.45;22.55;;;;;;;10.90;63.17;100658.52;1776265;80;21206;-78
2021/04/12 11:36:21;;;;;;;36.77;21.52;;;;;;;10.83;62.82;100656.52;1763634;80;21174;-77
2021/04/12 11:39:03;;;;;;;37.78;19.62;;;;;;;10.87;63.85;100655.98;1769576;80;22293;-78
2021/04/12 11:42:14;;;;;;;37.48;20.10;;;;;;;10.89;63.86;100650.22;1764874;80;21199;-78
2021/04/12 11:44:53;;;;;;;37.00;20.00;;;;;;;10.88;63.24;100644.52;1712939;83;28085;-78
2021/04/12 11:47:52;;;;;;;35.20;19.17;;;;;;;10.94;62.38;100643.03;1749973;81;21226;-77
2021/04/12 11:51:06;;;;;;;35.33;19.25;;;;;;;10.98;62.41;100638.08;1774109;79;21169;-81
2021/04/12 11:53:45;;;;;;;34.13;20.37;;;;;;;11.07;62.49;100640.44;1743964;79;21382;-80
2021/04/12 11:56:38;;;;;;;31.12;18.42;;;;;;;11.16;61.56;100630.07;1768258;80;21906;-83
2021/04/12 11:59:37;;;;;;;29.15;18.50;;;;;;;11.21;61.86;100629.92;1772029;80;21178;-85
2021/04/12 12:02:25;;;;;;;27.98;17.67;;;;;;;11.24;61.46;100623.22;1734794;81;21096;-82
2021/04/12 12:04:59;;;;;;;31.55;16.90;;;;;;;11.25;61.49;100613.95;1742153;81;21126;-82
2021/04/12 12:07:50;;;;;;;26.95;16.90;;;;;;;11.27;61.83;100613.89;1715270;82;21492;-84
2021/04/12 12:10:40;;;;;;;25.65;16.93;;;;;;;11.33;61.80;100611.92;1717300;81;21129;-84
2021/04/12 12:13:42;;;;;;;25.70;17.67;;;;;;;11.39;59.52;100616.15;1726531;82;21169;-81
2021/04/12 12:16:33;;;;;;;26.80;16.62;;;;;;;11.40;58.34;100612.59;1730864;81;21909;-82
2021/04/12 12:19:31;;;;;;;29.70;17.77;;;;;;;11.42;58.08;100610.77;1738051;81;21210;-82
2021/04/12 12:22:16;;;;;;;27.62;17.37;;;;;;;11.37;58.03;100607.42;1736786;81;21334;-82
2021/04/12 12:25:05;;;;;;;35.48;19.05;;;;;;;11.37;58.22;100611.84;1740619;81;21204;-82
2021/04/12 12:27:42;;;;;;;31.90;18.23;;;;;;;11.40;59.29;100601.18;1734628;81;21221;-85
2021/04/12 12:30:24;;;;;;;29.95;18.32;;;;;;;11.44;57.37;100597.07;1697995;82;21186;-85
2021/04/12 12:33:22;;;;;;;29.57;18.07;;;;;;;11.43;58.92;100593.16;1740787;81;21301;-86
2021/04/12 12:36:10;;;;;;;27.73;17.35;;;;;;;11.44;58.15;100593.12;1713992;82;21283;-82
2021/04/12 12:39:11;;;;;;;27.13;17.45;;;;;;;11.47;58.80;100590.37;1743322;81;21205;-76
2021/04/12 12:41:48;;;;;;;29.92;16.82;;;;;;;11.56;58.68;100601.08;1719111;82;21213;-83
2021/04/12 12:44:23;;;;;;;34.88;20.68;;;;;;;11.63;58.99;100589.86;1727203;80;21609;-82
2021/04/12 12:46:53;;;;;;;34.67;19.85;;;;;;;11.68;57.20;100591.88;1717890;82;21194;-83
2021/04/12 12:49:27;;;;;;;35.55;20.75;;;;;;;11.66;58.08;100596.34;1732124;82;21375;-81
2021/04/12 12:51:58;;;;;;;34.73;20.82;;;;;;;11.65;56.09;100593.31;1713384;82;21216;-81
2021/04/12 12:54:44;;;;;;;34.20;21.45;;;;;;;11.63;57.02;100595.14;1734119;82;21606;-82
2021/04/12 12:57:30;;;;;;;32.45;19.82;;;;;;;11.68;57.05;100595.83;1729561;82;21594;-83
2021/04/12 13:00:10;;;;;;;32.17;17.55;;;;;;;11.73;56.57;100593.89;1727111;82;21186;-82
2021/04/12 13:02:40;;;;;;;31.30;18.85;;;;;;;11.75;56.33;100597.34;1731337;81;21209;-82
2021/04/12 13:05:24;;;;;;;32.73;19.80;;;;;;;11.79;56.52;100602.08;1725737;81;21590;-83
2021/04/12 13:08:14;;;;;;;29.48;18.95;;;;;;;11.78;55.42;100605.18;1691288;84;21182;-84
2021/04/12 13:10:48;;;;;;;36.68;19.40;;;;;;;11.72;54.61;100604.06;1688933;84;21710;-84
2021/04/12 13:13:27;;;;;;;32.73;19.95;;;;;;;11.67;54.83;100602.04;1723590;82;21138;-84
2021/04/12 13:16:10;;;;;;;29.87;20.15;;;;;;;11.66;54.92;100600.30;1724002;82;21196;-83
2021/04/12 13:18:45;;;;;;;33.25;20.10;;;;;;;11.64;53.80;100598.16;1721829;83;21183;-75
2021/04/12 13:21:24;;;;;;;32.63;20.77;;;;;;;11.57;54.42;100590.05;1721363;82;21218;-76
2021/04/12 13:24:09;;;;;;;37.15;22.98;;;;;;;11.55;54.30;100588.34;1724537;82;21162;-77
2021/04/12 13:26:54;;;;;;;34.38;20.55;;;;;;;11.52;54.26;100593.70;1701007;80;21626;-77
2021/04/12 13:29:25;;;;;;;36.80;22.02;;;;;;;11.47;54.59;100591.69;1731086;82;21575;-77
2021/04/12 13:32:00;;;;;;;38.48;22.62;;;;;;;11.45;55.08;100590.88;1738664;82;24273;-77